Observations for VILLAFRANCA CV MIL, Italy (LIPX)

LIPX 192020Z 06003KT 9999 FEW070 16/14 Q1016
LIPX 191950Z 07005KT 9999 FEW070 17/14 Q1016
LIPX 191920Z 06005KT 9999 FEW070 17/14 Q1016
LIPX 191850Z 07003KT 9999 BKN060 17/14 Q1015
LIPX 191820Z 04003KT 9999 BKN060 17/14 Q1015
LIPX 191750Z 06003KT 030V090 9999 BKN050 17/14 Q1015
LIPX 191720Z 04002KT 9999 BKN050 17/14 Q1015
LIPX 191650Z 06002KT 9999 BKN050 17/14 Q1015
LIPX 191620Z 06003KT 9999 SCT040 BKN060 18/14 Q1015 
LIPX 191550Z 04003KT 9999 SCT040 BKN060 18/14 Q1015 
LIPX 191520Z 04005KT 9999 SCT070 BKN090 18/14 Q1015 
LIPX 191450Z 03006KT 9999 SCT070 BKN090 18/14 Q1015 
LIPX 191420Z 04006KT 9999 SCT070 BKN090 19/14 Q1015 
LIPX 191350Z 02006KT 9999 SCT060 BKN090 18/15 Q1016 
LIPX 191320Z 03005KT 010V070 9999 SCT050 BKN070 18/15 Q1016 
LIPX 191250Z 02005KT 7000 SCT050 BKN070 18/15 Q1015 
LIPX 191220Z 01007KT 5000 BR SCT050 BKN070 17/16 Q1016  
LIPX 191150Z VRB02KT 5000 -RA BR SCT050 BKN080 18/15 Q1016  
LIPX 191120Z 05002KT 5000 -RA BR SCT050 BKN080 17/15 Q1016  
LIPX 191050Z 06003KT 5000 -RA BR SCT050 BKN070 17/14 Q1016  
LIPX 191020Z 06004KT 4000 BR SCT060 BKN090 17/14 Q1016  
LIPX 190950Z 05002KT 4000 BR SCT060 BKN080 17/15 Q1016  
LIPX 190920Z 05004KT 3000 BR SCT060 BKN090 17/14 Q1016  
LIPX 190850Z 04004KT 2500 BR SCT060 BKN090 16/15 Q1016  
LIPX 190820Z 06004KT 2000 BR SCT060 BKN090 16/15 Q1016  
LIPX 190750Z VRB02KT 2500 -RA BR SCT060 SCT080 15/14 Q1016  
LIPX 190720Z VRB02KT 2500 -RA BR SCT060 SCT080 15/14 Q1016  
LIPX 190650Z 08004KT 2000 BR SCT060 SCT080 15/14 Q1016  
LIPX 190620Z VRB02KT 2500 BR SCT060 SCT080 14/14 Q1015  
LIPX 190550Z 14002KT 5000 BR SCT060 SCT090 14/14 Q1015  
LIPX 190520Z 13002KT 9000 SCT060 SCT090 14/14 Q1015 
LIPX 190450Z VRB01KT 8000 SCT060 14/14 Q1015
LIPX 190420Z 36003KT 8000 SCT090 15/14 Q1015
LIPX 190350Z 36004KT 5000 BR BKN060 15/15 Q1015 
LIPX 190320Z 01003KT 5000 -DZ BR BKN060 15/14 Q1015 
LIPX 190250Z 36004KT 5000 BR BKN070 15/14 Q1016 
LIPX 190150Z VRB02KT 5000 BR BKN070 15/14 Q1016 
LIPX 190120Z VRB02KT 5000 BR BKN080 15/14 Q1016 
LIPX 190050Z VRB02KT 6000 BKN080 15/15 Q1016
LIPX 190020Z 07002KT 7000 BKN060 15/14 Q1016
LIPX 182350Z VRB01KT 9999 BKN060 15/14 Q1016
LIPX 182320Z 06002KT 9999 BKN080 15/14 Q1016
LIPX 182250Z 08002KT 8000 BKN080 15/14 Q1016
LIPX 182220Z VRB01KT 8000 BKN080 15/14 Q1016
LIPX 182150Z VRB01KT 7000 BKN070 16/14 Q1016
LIPX 182120Z VRB02KT 7000 BKN070 16/14 Q1017
LIPX 182050Z 34003KT 9999 SCT070 BKN090 16/14 Q1017 
LIPX 182020Z 26001KT 9999 BKN060 16/14 Q1017
LIPX 181950Z 31003KT 9999 BKN060 16/14 Q1017